Terminal Aerodrome Forecast
Issued by NWS Springfield, MO

Home | Current Version | Previous Version | Text Only | Print | Product List | Glossary On
Versions: 1 2 3 4 5 6 7 8 9 10 11 12 13 14 15 16 17 18 19 20 21 22 23 24 25 26 27 28 29 30 31 32
000
FTUS43 KSGF 210800 AAA
TAFSGF
TAF AMD
KSGF 210852Z 2109/2206 13012KT P6SM SCT013
     FM211000 13013KT P6SM OVC013
     FM211500 14015G22KT P6SM -DZ OVC012
      TEMPO 2115/2119 4SM -RADZ BR
     FM212200 15014KT 4SM -DZ BR OVC008 WS020/19045KT=

USA.gov is the U.S. government's official web portal to all federal, state and local government web resources and services.